sensor_id;sensor_type;location;lat;lon;timestamp;pressure;altitude;pressure_sealevel;temperature;humidity
21594;BME280;10959;51.328;7.322;2023-04-01T00:01:07;96570.38;;;11.75;82.57
21594;BME280;10959;51.328;7.322;2023-04-01T00:03:33;96572.34;;;11.73;82.94
21594;BME280;10959;51.328;7.322;2023-04-01T00:06:01;96563.28;;;11.74;82.85
21594;BME280;10959;51.328;7.322;2023-04-01T00:08:28;96572.63;;;11.70;82.93
21594;BME280;10959;51.328;7.322;2023-04-01T00:10:55;96553.59;;;11.62;83.45
21594;BME280;10959;51.328;7.322;2023-04-01T00:13:22;96573.34;;;11.62;83.37
21594;BME280;10959;51.328;7.322;2023-04-01T00:15:50;96573.19;;;11.64;83.53
21594;BME280;10959;51.328;7.322;2023-04-01T00:18:18;96558.44;;;11.68;83.06
21594;BME280;10959;51.328;7.322;2023-04-01T00:20:46;96575.44;;;11.58;83.38
21594;BME280;10959;51.328;7.322;2023-04-01T00:23:13;96563.84;;;11.68;83.05
21594;BME280;10959;51.328;7.322;2023-04-01T00:25:40;96566.38;;;11.59;83.30
21594;BME280;10959;51.328;7.322;2023-04-01T00:28:07;96557.31;;;11.61;83.90
21594;BME280;10959;51.328;7.322;2023-04-01T00:30:33;96555.59;;;11.59;83.79
21594;BME280;10959;51.328;7.322;2023-04-01T00:33:00;96558.72;;;11.65;83.71
21594;BME280;10959;51.328;7.322;2023-04-01T00:35:27;96560.41;;;11.66;83.78
21594;BME280;10959;51.328;7.322;2023-04-01T00:37:54;96562.13;;;11.67;83.79
21594;BME280;10959;51.328;7.322;2023-04-01T00:40:27;96561.53;;;11.53;83.62
21594;BME280;10959;51.328;7.322;2023-04-01T00:42:53;96564.38;;;11.62;83.56
21594;BME280;10959;51.328;7.322;2023-04-01T00:45:29;96555.13;;;11.45;83.80
21594;BME280;10959;51.328;7.322;2023-04-01T00:47:59;96557.00;;;11.54;83.64
21594;BME280;10959;51.328;7.322;2023-04-01T00:50:28;96546.06;;;11.55;83.88
21594;BME280;10959;51.328;7.322;2023-04-01T00:52:58;96549.59;;;11.56;83.80
21594;BME280;10959;51.328;7.322;2023-04-01T00:55:25;96541.41;;;11.57;83.96
21594;BME280;10959;51.328;7.322;2023-04-01T00:57:53;96545.38;;;11.53;84.33
21594;BME280;10959;51.328;7.322;2023-04-01T01:00:22;96546.28;;;11.33;84.30
21594;BME280;10959;51.328;7.322;2023-04-01T01:02:50;96550.31;;;11.48;84.49
21594;BME280;10959;51.328;7.322;2023-04-01T01:05:19;96544.63;;;11.51;84.12
21594;BME280;10959;51.328;7.322;2023-04-01T01:07:54;96550.44;;;11.47;83.80
21594;BME280;10959;51.328;7.322;2023-04-01T01:10:29;96546.19;;;11.44;83.95
21594;BME280;10959;51.328;7.322;2023-04-01T01:13:04;96541.63;;;11.35;83.92
21594;BME280;10959;51.328;7.322;2023-04-01T01:15:37;96549.00;;;11.43;83.92
21594;BME280;10959;51.328;7.322;2023-04-01T01:18:10;96551.28;;;11.47;83.99
21594;BME280;10959;51.328;7.322;2023-04-01T01:20:57;96551.25;;;11.28;84.02
21594;BME280;10959;51.328;7.322;2023-04-01T01:24:07;96542.72;;;11.22;83.88
21594;BME280;10959;51.328;7.322;2023-04-01T01:26:53;96538.31;;;11.21;83.96
21594;BME280;10959;51.328;7.322;2023-04-01T01:29:39;96537.03;;;11.26;84.22
21594;BME280;10959;51.328;7.322;2023-04-01T01:32:19;96533.25;;;11.38;83.88
21594;BME280;10959;51.328;7.322;2023-04-01T01:34:54;96545.75;;;11.39;84.23
21594;BME280;10959;51.328;7.322;2023-04-01T01:37:26;96541.63;;;11.35;84.28
21594;BME280;10959;51.328;7.322;2023-04-01T01:39:58;96547.16;;;11.43;84.21
21594;BME280;10959;51.328;7.322;2023-04-01T01:42:29;96539.06;;;11.43;84.08
21594;BME280;10959;51.328;7.322;2023-04-01T01:44:58;96535.72;;;11.51;84.41
21594;BME280;10959;51.328;7.322;2023-04-01T01:47:27;96528.88;;;11.47;84.21
21594;BME280;10959;51.328;7.322;2023-04-01T01:49:55;96531.72;;;11.45;84.68
21594;BME280;10959;51.328;7.322;2023-04-01T01:52:22;96519.78;;;11.38;84.55
21594;BME280;10959;51.328;7.322;2023-04-01T01:54:52;96531.38;;;11.29;84.91
21594;BME280;10959;51.328;7.322;2023-04-01T01:57:24;96531.13;;;11.32;84.94
21594;BME280;10959;51.328;7.322;2023-04-01T01:59:54;96529.59;;;11.39;84.64
21594;BME280;10959;51.328;7.322;2023-04-01T02:02:22;96535.69;;;11.41;84.87
21594;BME280;10959;51.328;7.322;2023-04-01T02:04:51;96538.66;;;11.38;84.98
21594;BME280;10959;51.328;7.322;2023-04-01T02:07:22;96534.53;;;11.34;84.84
21594;BME280;10959;51.328;7.322;2023-04-01T02:09:52;96535.69;;;11.41;84.75
21594;BME280;10959;51.328;7.322;2023-04-01T02:12:19;96532.28;;;11.39;84.64
21594;BME280;10959;51.328;7.322;2023-04-01T02:14:50;96542.34;;;11.37;84.52
21594;BME280;10959;51.328;7.322;2023-04-01T02:17:19;96536.25;;;11.35;84.64
21594;BME280;10959;51.328;7.322;2023-04-01T02:19:49;96545.03;;;11.37;84.53
21594;BME280;10959;51.328;7.322;2023-04-01T02:22:18;96537.41;;;11.42;84.48
21594;BME280;10959;51.328;7.322;2023-04-01T02:24:46;96540.75;;;11.34;84.14
21594;BME280;10959;51.328;7.322;2023-04-01T02:27:15;96536.25;;;11.35;84.23
21594;BME280;10959;51.328;7.322;2023-04-01T02:29:41;96533.41;;;11.36;84.24
21594;BME280;10959;51.328;7.322;2023-04-01T02:32:08;96540.22;;;11.40;83.73
21594;BME280;10959;51.328;7.322;2023-04-01T02:34:36;96539.06;;;11.43;83.70
21594;BME280;10959;51.328;7.322;2023-04-01T02:37:03;96536.81;;;11.38;83.77
21594;BME280;10959;51.328;7.322;2023-04-01T02:39:30;96526.91;;;11.39;83.89
21594;BME280;10959;51.328;7.322;2023-04-01T02:41:56;96532.53;;;11.36;84.23
21594;BME280;10959;51.328;7.322;2023-04-01T02:44:24;96540.50;;;11.37;83.71
21594;BME280;10959;51.328;7.322;2023-04-01T02:46:50;96532.53;;;11.36;84.31
21594;BME280;10959;51.328;7.322;2023-04-01T02:49:17;96532.28;;;11.39;84.18
21594;BME280;10959;51.328;7.322;2023-04-01T02:51:44;96530.28;;;11.41;83.96
21594;BME280;10959;51.328;7.322;2023-04-01T02:54:10;96533.69;;;11.43;83.78
21594;BME280;10959;51.328;7.322;2023-04-01T02:56:37;96517.50;;;11.43;83.93
21594;BME280;10959;51.328;7.322;2023-04-01T02:59:03;96536.38;;;11.43;84.08
21594;BME280;10959;51.328;7.322;2023-04-01T03:01:31;96530.44;;;11.39;83.80
21594;BME280;10959;51.328;7.322;2023-04-01T03:03:58;96540.06;;;11.32;84.07
21594;BME280;10959;51.328;7.322;2023-04-01T03:06:24;96534.25;;;11.37;84.04
21594;BME280;10959;51.328;7.322;2023-04-01T03:08:50;96543.06;;;11.39;84.23
21594;BME280;10959;51.328;7.322;2023-04-01T03:11:17;96545.75;;;11.39;84.26
21594;BME280;10959;51.328;7.322;2023-04-01T03:13:43;96541.59;;;11.25;84.09
21594;BME280;10959;51.328;7.322;2023-04-01T03:16:10;96543.88;;;11.30;84.29
21594;BME280;10959;51.328;7.322;2023-04-01T03:18:37;96543.03;;;11.29;83.95
21594;BME280;10959;51.328;7.322;2023-04-01T03:21:15;96545.22;;;11.14;84.04
21594;BME280;10959;51.328;7.322;2023-04-01T03:23:42;96545.41;;;11.22;84.71
21594;BME280;10959;51.328;7.322;2023-04-01T03:26:08;96543.88;;;11.30;84.45
21594;BME280;10959;51.328;7.322;2023-04-01T03:28:35;96545.59;;;11.31;83.92
21594;BME280;10959;51.328;7.322;2023-04-01T03:31:01;96539.91;;;11.34;83.96
21594;BME280;10959;51.328;7.322;2023-04-01T03:33:28;96537.59;;;11.19;84.23
21594;BME280;10959;51.328;7.322;2023-04-01T03:35:55;96546.13;;;11.24;84.26
21594;BME280;10959;51.328;7.322;2023-04-01T03:38:22;96547.53;;;11.29;84.16
21594;BME280;10959;51.328;7.322;2023-04-01T03:40:49;96544.47;;;11.33;83.90
21594;BME280;10959;51.328;7.322;2023-04-01T03:43:15;96556.91;;;11.24;83.80
21594;BME280;10959;51.328;7.322;2023-04-01T03:45:46;96557.44;;;11.18;84.09
21594;BME280;10959;51.328;7.322;2023-04-01T03:48:12;96558.31;;;11.29;83.99
21594;BME280;10959;51.328;7.322;2023-04-01T03:50:38;96554.91;;;11.27;84.07
21594;BME280;10959;51.328;7.322;2023-04-01T03:53:07;96561.47;;;11.34;83.97
21594;BME280;10959;51.328;7.322;2023-04-01T03:55:35;96561.47;;;11.34;83.78
21594;BME280;10959;51.328;7.322;2023-04-01T03:58:02;96558.91;;;11.32;84.01
21594;BME280;10959;51.328;7.322;2023-04-01T04:00:28;96560.03;;;11.30;84.28
21594;BME280;10959;51.328;7.322;2023-04-01T04:02:55;96556.09;;;11.34;84.18
21594;BME280;10959;51.328;7.322;2023-04-01T04:05:22;96565.16;;;11.33;84.26
21594;BME280;10959;51.328;7.322;2023-04-01T04:07:49;96561.75;;;11.31;84.38
21594;BME280;10959;51.328;7.322;2023-04-01T04:10:17;96557.19;;;11.31;84.43
21594;BME280;10959;51.328;7.322;2023-04-01T04:12:44;96562.91;;;11.38;84.14
21594;BME280;10959;51.328;7.322;2023-04-01T04:15:11;96564.63;;;11.39;84.19
21594;BME280;10959;51.328;7.322;2023-04-01T04:17:38;96559.22;;;11.39;84.11
21594;BME280;10959;51.328;7.322;2023-04-01T04:20:06;96568.00;;;11.41;84.05
21594;BME280;10959;51.328;7.322;2023-04-01T04:22:32;96572.28;;;11.44;84.10
21594;BME280;10959;51.328;7.322;2023-04-01T04:24:59;96569.44;;;11.45;83.80
21594;BME280;10959;51.328;7.322;2023-04-01T04:27:27;96574.84;;;11.45;83.74
21594;BME280;10959;51.328;7.322;2023-04-01T04:29:53;96573.13;;;11.44;84.05
21594;BME280;10959;51.328;7.322;2023-04-01T04:32:20;96578.25;;;11.47;84.00
21594;BME280;10959;51.328;7.322;2023-04-01T04:34:46;96579.38;;;11.45;83.88
21594;BME280;10959;51.328;7.322;2023-04-01T04:37:13;96571.41;;;11.43;84.40
21594;BME280;10959;51.328;7.322;2023-04-01T04:39:39;96580.78;;;11.39;84.37
21594;BME280;10959;51.328;7.322;2023-04-01T04:42:05;96581.03;;;11.36;84.48
21594;BME280;10959;51.328;7.322;2023-04-01T04:44:33;96576.09;;;11.41;84.46
21594;BME280;10959;51.328;7.322;2023-04-01T04:47:00;96582.47;;;11.40;84.38
21594;BME280;10959;51.328;7.322;2023-04-01T04:49:27;96583.91;;;11.44;84.44
21594;BME280;10959;51.328;7.322;2023-04-01T04:51:53;96571.16;;;11.46;84.21
21594;BME280;10959;51.328;7.322;2023-04-01T04:54:20;96578.25;;;11.47;84.17
21594;BME280;10959;51.328;7.322;2023-04-01T04:56:46;96582.19;;;11.43;84.53
21594;BME280;10959;51.328;7.322;2023-04-01T04:59:13;96580.22;;;11.45;84.35
21594;BME280;10959;51.328;7.322;2023-04-01T05:01:41;96580.78;;;11.49;84.10
21594;BME280;10959;51.328;7.322;2023-04-01T05:04:07;96575.28;;;11.50;84.19
21594;BME280;10959;51.328;7.322;2023-04-01T05:06:33;96592.72;;;11.46;84.19
21594;BME280;10959;51.328;7.322;2023-04-01T05:09:00;96582.50;;;11.50;84.29
21594;BME280;10959;51.328;7.322;2023-04-01T05:11:26;96594.16;;;11.50;84.49
21594;BME280;10959;51.328;7.322;2023-04-01T05:13:53;96587.06;;;11.49;84.40
21594;BME280;10959;51.328;7.322;2023-04-01T05:16:20;96585.94;;;11.52;84.24
21594;BME280;10959;51.328;7.322;2023-04-01T05:18:48;96599.09;;;11.45;84.25
21594;BME280;10959;51.328;7.322;2023-04-01T05:21:15;96596.84;;;11.50;84.52
21594;BME280;10959;51.328;7.322;2023-04-01T05:23:42;96593.16;;;11.51;84.27
21594;BME280;10959;51.328;7.322;2023-04-01T05:26:11;96597.84;;;11.49;84.45
21594;BME280;10959;51.328;7.322;2023-04-01T05:28:38;96594.16;;;11.50;84.40
21594;BME280;10959;51.328;7.322;2023-04-01T05:31:05;96597.56;;;11.52;84.39
21594;BME280;10959;51.328;7.322;2023-04-01T05:33:32;96603.22;;;11.49;84.67
21594;BME280;10959;51.328;7.322;2023-04-01T05:36:07;96606.28;;;11.35;84.74
21594;BME280;10959;51.328;7.322;2023-04-01T05:38:34;96601.50;;;11.48;84.94
21594;BME280;10959;51.328;7.322;2023-04-01T05:41:01;96606.34;;;11.54;84.44
21594;BME280;10959;51.328;7.322;2023-04-01T05:43:28;96606.47;;;11.53;84.82
21594;BME280;10959;51.328;7.322;2023-04-01T05:45:55;96611.72;;;11.54;84.45
21594;BME280;10959;51.328;7.322;2023-04-01T05:48:21;96614.00;;;11.49;85.11
21594;BME280;10959;51.328;7.322;2023-04-01T05:50:47;96606.91;;;11.48;84.82
21594;BME280;10959;51.328;7.322;2023-04-01T05:53:15;96618.84;;;11.55;84.83
21594;BME280;10959;51.328;7.322;2023-04-01T05:55:42;96612.47;;;11.56;84.56
21594;BME280;10959;51.328;7.322;2023-04-01T05:58:08;96620.56;;;11.56;84.70
21594;BME280;10959;51.328;7.322;2023-04-01T06:00:35;96617.00;;;11.56;84.60
21594;BME280;10959;51.328;7.322;2023-04-01T06:03:01;96606.94;;;11.58;84.82
21594;BME280;10959;51.328;7.322;2023-04-01T06:05:29;96622.97;;;11.59;84.63
21594;BME280;10959;51.328;7.322;2023-04-01T06:07:58;96618.28;;;11.62;84.48
21594;BME280;10959;51.328;7.322;2023-04-01T06:10:36;96615.25;;;11.45;84.50
21594;BME280;10959;51.328;7.322;2023-04-01T06:13:07;96619.56;;;11.57;84.74
21594;BME280;10959;51.328;7.322;2023-04-01T06:15:40;96624.78;;;11.49;84.33
21594;BME280;10959;51.328;7.322;2023-04-01T06:18:33;96630.00;;;11.41;84.44
21594;BME280;10959;51.328;7.322;2023-04-01T06:21:13;96633.56;;;11.51;84.72
21594;BME280;10959;51.328;7.322;2023-04-01T06:23:56;96631.16;;;11.48;84.74
21594;BME280;10959;51.328;7.322;2023-04-01T06:26:30;96629.63;;;11.55;84.33
21594;BME280;10959;51.328;7.322;2023-04-01T06:29:47;96637.75;;;11.34;84.83
21594;BME280;10959;51.328;7.322;2023-04-01T06:32:38;96636.38;;;11.40;84.76
21594;BME280;10959;51.328;7.322;2023-04-01T06:35:40;96638.63;;;11.35;84.99
21594;BME280;10959;51.328;7.322;2023-04-01T06:38:31;96633.53;;;11.41;85.02
21594;BME280;10959;51.328;7.322;2023-04-01T06:41:17;96636.97;;;11.44;85.20
21594;BME280;10959;51.328;7.322;2023-04-01T06:43:55;96642.66;;;11.50;85.11
21594;BME280;10959;51.328;7.322;2023-04-01T06:46:32;96642.13;;;11.56;84.67
21594;BME280;10959;51.328;7.322;2023-04-01T06:49:11;96645.25;;;11.62;84.68
21594;BME280;10959;51.328;7.322;2023-04-01T06:51:47;96645.00;;;11.65;84.84
21594;BME280;10959;51.328;7.322;2023-04-01T06:54:20;96643.00;;;11.67;84.90
21594;BME280;10959;51.328;7.322;2023-04-01T06:56:51;96642.03;;;11.68;84.75
21594;BME280;10959;51.328;7.322;2023-04-01T06:59:25;96651.69;;;11.70;84.79
21594;BME280;10959;51.328;7.322;2023-04-01T07:01:55;96646.16;;;11.72;84.99
21594;BME280;10959;51.328;7.322;2023-04-01T07:04:25;96654.09;;;11.73;85.01
21594;BME280;10959;51.328;7.322;2023-04-01T07:06:54;96652.69;;;11.79;84.88
21594;BME280;10959;51.328;7.322;2023-04-01T07:09:25;96655.78;;;11.74;84.68
21594;BME280;10959;51.328;7.322;2023-04-01T07:11:53;96662.63;;;11.79;84.76
21594;BME280;10959;51.328;7.322;2023-04-01T07:14:26;96655.69;;;11.76;84.75
21594;BME280;10959;51.328;7.322;2023-04-01T07:16:59;96656.19;;;11.70;84.71
21594;BME280;10959;51.328;7.322;2023-04-01T07:19:31;96656.66;;;11.75;84.91
21594;BME280;10959;51.328;7.322;2023-04-01T07:22:01;96656.78;;;11.73;84.81
21594;BME280;10959;51.328;7.322;2023-04-01T07:24:33;96660.34;;;11.74;84.76
21594;BME280;10959;51.328;7.322;2023-04-01T07:27:00;96663.50;;;11.79;85.29
21594;BME280;10959;51.328;7.322;2023-04-01T07:29:28;96669.31;;;11.84;84.86
21594;BME280;10959;51.328;7.322;2023-04-01T07:32:20;96669.13;;;11.66;85.03
21594;BME280;10959;51.328;7.322;2023-04-01T07:35:07;96678.31;;;11.64;85.06
21594;BME280;10959;51.328;7.322;2023-04-01T07:37:40;96672.56;;;11.78;84.93
21594;BME280;10959;51.328;7.322;2023-04-01T07:40:20;96678.22;;;11.75;84.88
21594;BME280;10959;51.328;7.322;2023-04-01T07:43:00;96685.06;;;11.79;85.03
21594;BME280;10959;51.328;7.322;2023-04-01T07:45:39;96679.66;;;11.79;85.11
21594;BME280;10959;51.328;7.322;2023-04-01T07:48:18;96683.34;;;11.78;85.02
21594;BME280;10959;51.328;7.322;2023-04-01T07:50:51;96684.78;;;11.82;85.22
21594;BME280;10959;51.328;7.322;2023-04-01T07:53:27;96691.16;;;11.81;85.23
21594;BME280;10959;51.328;7.322;2023-04-01T07:56:04;96694.13;;;11.78;85.40
21594;BME280;10959;51.328;7.322;2023-04-01T07:58:37;96695.28;;;11.85;85.38
21594;BME280;10959;51.328;7.322;2023-04-01T08:01:13;96696.13;;;11.86;85.30
21594;BME280;10959;51.328;7.322;2023-04-01T08:03:55;96696.00;;;11.87;85.33
21594;BME280;10959;51.328;7.322;2023-04-01T08:06:32;96704.75;;;12.01;84.96
21594;BME280;10959;51.328;7.322;2023-04-01T08:09:10;96707.03;;;12.05;85.02
21594;BME280;10959;51.328;7.322;2023-04-01T08:11:53;96704.75;;;12.01;85.03
21594;BME280;10959;51.328;7.322;2023-04-01T08:14:30;96713.69;;;12.01;85.24
21594;BME280;10959;51.328;7.322;2023-04-01T08:17:07;96707.03;;;12.05;85.15
21594;BME280;10959;51.328;7.322;2023-04-01T08:19:50;96716.09;;;11.95;85.17
21594;BME280;10959;51.328;7.322;2023-04-01T08:22:26;96722.38;;;12.05;85.28
21594;BME280;10959;51.328;7.322;2023-04-01T08:24:56;96723.25;;;12.15;85.25
21594;BME280;10959;51.328;7.322;2023-04-01T08:27:31;96716.72;;;12.18;85.11
21594;BME280;10959;51.328;7.322;2023-04-01T08:30:03;96728.34;;;12.18;85.02
21594;BME280;10959;51.328;7.322;2023-04-01T08:32:35;96725.94;;;12.15;85.19
21594;BME280;10959;51.328;7.322;2023-04-01T08:35:08;96729.19;;;12.09;85.16
21594;BME280;10959;51.328;7.322;2023-04-01T08:37:39;96726.22;;;12.12;85.15
21594;BME280;10959;51.328;7.322;2023-04-01T08:40:25;96732.16;;;12.06;84.91
21594;BME280;10959;51.328;7.322;2023-04-01T08:43:08;96740.25;;;12.06;84.89
21594;BME280;10959;51.328;7.322;2023-04-01T08:45:44;96736.25;;;12.00;84.96
21594;BME280;10959;51.328;7.322;2023-04-01T08:48:31;96743.78;;;11.97;85.11
21594;BME280;10959;51.328;7.322;2023-04-01T08:51:32;96746.47;;;11.97;85.03
21594;BME280;10959;51.328;7.322;2023-04-01T08:54:39;96745.75;;;11.95;85.47
21594;BME280;10959;51.328;7.322;2023-04-01T08:57:13;96755.06;;;12.21;85.66
21594;BME280;10959;51.328;7.322;2023-04-01T08:59:53;96753.19;;;12.12;84.97
21594;BME280;10959;51.328;7.322;2023-04-01T09:02:49;96759.84;;;12.08;85.20
21594;BME280;10959;51.328;7.322;2023-04-01T09:05:37;96762.84;;;12.05;85.18
21594;BME280;10959;51.328;7.322;2023-04-01T09:08:28;96767.22;;;12.06;85.11
21594;BME280;10959;51.328;7.322;2023-04-01T09:11:06;96766.97;;;12.19;84.90
21594;BME280;10959;51.328;7.322;2023-04-01T09:13:55;96767.13;;;12.17;84.89
21594;BME280;10959;51.328;7.322;2023-04-01T09:16:39;96762.19;;;12.22;84.92
21594;BME280;10959;51.328;7.322;2023-04-01T09:19:16;96771.16;;;12.33;84.94
21594;BME280;10959;51.328;7.322;2023-04-01T09:21:58;96769.31;;;12.33;84.73
21594;BME280;10959;51.328;7.322;2023-04-01T09:24:48;96778.69;;;12.29;84.73
21594;BME280;10959;51.328;7.322;2023-04-01T09:27:26;96779.56;;;12.39;84.64
21594;BME280;10959;51.328;7.322;2023-04-01T09:33:30;96788.19;;;12.23;84.78
21594;BME280;10959;51.328;7.322;2023-04-01T09:36:04;96788.34;;;12.41;85.12
21594;BME280;10959;51.328;7.322;2023-04-01T09:38:47;96800.84;;;12.33;84.84
21594;BME280;10959;51.328;7.322;2023-04-01T09:41:28;96804.50;;;12.32;84.80
21594;BME280;10959;51.328;7.322;2023-04-01T09:44:01;96807.06;;;12.23;85.04
21594;BME280;10959;51.328;7.322;2023-04-01T09:46:37;96814.88;;;12.26;85.11
21594;BME280;10959;51.328;7.322;2023-04-01T09:49:24;96808.69;;;12.05;85.41
21594;BME280;10959;51.328;7.322;2023-04-01T09:52:07;96810.13;;;12.09;85.80
21594;BME280;10959;51.328;7.322;2023-04-01T09:54:49;96811.81;;;12.10;85.69
21594;BME280;10959;51.328;7.322;2023-04-01T10:01:03;96815.34;;;12.01;86.13
21594;BME280;10959;51.328;7.322;2023-04-01T10:04:01;96818.59;;;11.95;86.35
21594;BME280;10959;51.328;7.322;2023-04-01T10:09:53;96833.03;;;12.15;85.95
21594;BME280;10959;51.328;7.322;2023-04-01T10:12:41;96824.50;;;12.19;85.90
21594;BME280;10959;51.328;7.322;2023-04-01T10:15:34;96836.97;;;12.10;85.87
21594;BME280;10959;51.328;7.322;2023-04-01T10:18:30;96842.22;;;12.12;86.09
21594;BME280;10959;51.328;7.322;2023-04-01T10:21:25;96844.56;;;12.26;86.27
21594;BME280;10959;51.328;7.322;2023-04-01T10:24:23;96840.63;;;12.31;86.28
21594;BME280;10959;51.328;7.322;2023-04-01T10:27:21;96844.28;;;12.30;86.36
21594;BME280;10959;51.328;7.322;2023-04-01T10:33:37;96854.41;;;12.37;85.76
21594;BME280;10959;51.328;7.322;2023-04-01T10:36:43;96847.16;;;12.38;85.65
21594;BME280;10959;51.328;7.322;2023-04-01T10:39:29;96848.50;;;12.53;85.47
21594;BME280;10959;51.328;7.322;2023-04-01T10:42:37;96850.06;;;12.46;85.01
21594;BME280;10959;51.328;7.322;2023-04-01T10:45:26;96852.91;;;12.54;85.30
21594;BME280;10959;51.328;7.322;2023-04-01T10:48:15;96853.47;;;12.48;85.00
21594;BME280;10959;51.328;7.322;2023-04-01T10:50:53;96851.50;;;12.60;85.17
21594;BME280;10959;51.328;7.322;2023-04-01T10:53:34;96860.63;;;12.69;85.10
21594;BME280;10959;51.328;7.322;2023-04-01T10:56:33;96863.41;;;12.57;85.06
21594;BME280;10959;51.328;7.322;2023-04-01T11:05:46;96867.94;;;12.47;85.14
21594;BME280;10959;51.328;7.322;2023-04-01T11:12:09;96873.97;;;12.60;85.25
21594;BME280;10959;51.328;7.322;2023-04-01T11:15:10;96874.53;;;12.64;84.90
21594;BME280;10959;51.328;7.322;2023-04-01T11:18:06;96864.06;;;12.71;84.88
21594;BME280;10959;51.328;7.322;2023-04-01T11:20:51;96876.03;;;12.88;84.65
21594;BME280;10959;51.328;7.322;2023-04-01T11:23:35;96876.31;;;12.94;84.74
21594;BME280;10959;51.328;7.322;2023-04-01T11:26:09;96886.03;;;13.07;84.73
21594;BME280;10959;51.328;7.322;2023-04-01T11:28:49;96881.19;;;13.01;84.54
21594;BME280;10959;51.328;7.322;2023-04-01T11:31:33;96883.59;;;12.94;83.88
21594;BME280;10959;51.328;7.322;2023-04-01T11:34:11;96892.53;;;12.94;84.40
21594;BME280;10959;51.328;7.322;2023-04-01T11:36:51;96894.25;;;12.95;84.41
21594;BME280;10959;51.328;7.322;2023-04-01T11:39:29;96894.56;;;13.02;84.06
21594;BME280;10959;51.328;7.322;2023-04-01T11:42:09;96891.44;;;13.07;84.19
21594;BME280;10959;51.328;7.322;2023-04-01T11:44:43;96899.81;;;13.04;83.96
21594;BME280;10959;51.328;7.322;2023-04-01T11:47:24;96899.38;;;12.99;83.95
21594;BME280;10959;51.328;7.322;2023-04-01T11:50:12;96899.38;;;12.99;84.29
21594;BME280;10959;51.328;7.322;2023-04-01T11:52:56;96904.78;;;12.99;84.07
21594;BME280;10959;51.328;7.322;2023-04-01T11:55:46;96906.91;;;12.95;83.90
21594;BME280;10959;51.328;7.322;2023-04-01T11:58:27;96917.00;;;13.03;83.92
21594;BME280;10959;51.328;7.322;2023-04-01T12:01:12;96919.00;;;13.01;84.25
21594;BME280;10959;51.328;7.322;2023-04-01T12:03:53;96932.69;;;13.09;84.14
21594;BME280;10959;51.328;7.322;2023-04-01T12:06:25;96919.88;;;13.11;84.13
21594;BME280;10959;51.328;7.322;2023-04-01T12:09:01;96930.38;;;13.04;84.21
21594;BME280;10959;51.328;7.322;2023-04-01T12:11:35;96935.66;;;13.06;84.42
21594;BME280;10959;51.328;7.322;2023-04-01T12:14:12;96926.84;;;13.04;84.25
21594;BME280;10959;51.328;7.322;2023-04-01T12:16:49;96929.13;;;13.08;83.98
21594;BME280;10959;51.328;7.322;2023-04-01T12:19:28;96932.94;;;13.06;83.97
21594;BME280;10959;51.328;7.322;2023-04-01T12:22:12;96936.38;;;13.08;83.95
21594;BME280;10959;51.328;7.322;2023-04-01T12:24:47;96950.06;;;13.16;83.63
21594;BME280;10959;51.328;7.322;2023-04-01T12:27:40;96941.63;;;13.00;83.93
21594;BME280;10959;51.328;7.322;2023-04-01T12:30:30;96942.31;;;13.02;83.95
21594;BME280;10959;51.328;7.322;2023-04-01T12:33:10;96952.75;;;13.16;83.57
21594;BME280;10959;51.328;7.322;2023-04-01T12:35:55;96952.31;;;13.11;83.88
21594;BME280;10959;51.328;7.322;2023-04-01T12:38:31;96953.47;;;13.18;83.61
21594;BME280;10959;51.328;7.322;2023-04-01T12:41:09;96960.53;;;13.00;83.09
21594;BME280;10959;51.328;7.322;2023-04-01T12:46:46;96955.63;;;12.84;84.55
21594;BME280;10959;51.328;7.322;2023-04-01T12:49:33;96963.88;;;12.82;84.62
21594;BME280;10959;51.328;7.322;2023-04-01T12:52:11;96969.88;;;12.95;84.54
21594;BME280;10959;51.328;7.322;2023-04-01T12:54:59;96970.44;;;12.89;84.46
21594;BME280;10959;51.328;7.322;2023-04-01T12:57:57;96972.41;;;12.87;84.30
21594;BME280;10959;51.328;7.322;2023-04-01T13:00:45;96975.72;;;12.91;84.20
21594;BME280;10959;51.328;7.322;2023-04-01T13:03:31;96978.28;;;12.92;84.09
21594;BME280;10959;51.328;7.322;2023-04-01T13:06:27;96984.63;;;12.82;84.28
21594;BME280;10959;51.328;7.322;2023-04-01T13:09:06;96988.63;;;12.87;84.41
21594;BME280;10959;51.328;7.322;2023-04-01T13:11:56;96985.91;;;12.87;84.26
21594;BME280;10959;51.328;7.322;2023-04-01T13:14:40;96992.84;;;12.80;84.42
21594;BME280;10959;51.328;7.322;2023-04-01T13:17:15;96994.28;;;12.84;84.95
21594;BME280;10959;51.328;7.322;2023-04-01T13:19:47;97002.81;;;12.79;84.66
21594;BME280;10959;51.328;7.322;2023-04-01T13:22:20;97009.94;;;12.81;85.04
21594;BME280;10959;51.328;7.322;2023-04-01T13:24:56;97012.63;;;12.81;84.54
21594;BME280;10959;51.328;7.322;2023-04-01T13:27:30;97015.38;;;12.90;84.84
21594;BME280;10959;51.328;7.322;2023-04-01T13:30:18;97013.94;;;12.86;84.82
21594;BME280;10959;51.328;7.322;2023-04-01T13:32:56;97028.16;;;12.88;84.72
21594;BME280;10959;51.328;7.322;2023-04-01T13:35:39;97026.72;;;12.84;84.79
21594;BME280;10959;51.328;7.322;2023-04-01T13:38:21;97032.13;;;12.84;84.99
21594;BME280;10959;51.328;7.322;2023-04-01T13:41:00;97030.94;;;12.77;84.61
21594;BME280;10959;51.328;7.322;2023-04-01T13:43:36;97034.09;;;12.82;84.85
21594;BME280;10959;51.328;7.322;2023-04-01T13:46:13;97030.59;;;12.60;85.81
21594;BME280;10959;51.328;7.322;2023-04-01T13:49:06;97036.75;;;12.51;85.79
21594;BME280;10959;51.328;7.322;2023-04-01T13:54:49;97036.22;;;12.57;86.00
21594;BME280;10959;51.328;7.322;2023-04-01T13:57:29;97039.13;;;12.66;85.32
21594;BME280;10959;51.328;7.322;2023-04-01T14:00:25;97044.31;;;12.57;85.76
21594;BME280;10959;51.328;7.322;2023-04-01T14:03:09;97044.78;;;12.62;85.85
21594;BME280;10959;51.328;7.322;2023-04-01T14:05:50;97054.53;;;12.75;85.84
21594;BME280;10959;51.328;7.322;2023-04-01T14:08:29;97053.53;;;12.76;85.38
21594;BME280;10959;51.328;7.322;2023-04-01T14:11:09;97056.56;;;12.83;85.62
21594;BME280;10959;51.328;7.322;2023-04-01T14:13:46;97058.34;;;12.93;85.33